sensor_id;sensor_type;location;lat;lon;timestamp;pressure;altitude;pressure_sealevel;temperature;humidity
60373;BME280;46216;52.220;5.134;2022-12-20T00:01:08;101433.75;;;9.73;100.00
60373;BME280;46216;52.220;5.134;2022-12-20T00:03:33;101425.00;;;9.71;100.00
60373;BME280;46216;52.220;5.134;2022-12-20T00:05:59;101424.06;;;9.72;100.00
60373;BME280;46216;52.220;5.134;2022-12-20T00:08:24;101416.94;;;9.73;100.00
60373;BME280;46216;52.220;5.134;2022-12-20T00:10:49;101415.91;;;9.75;100.00
60373;BME280;46216;52.220;5.134;2022-12-20T00:13:15;101426.34;;;9.78;100.00
60373;BME280;46216;52.220;5.134;2022-12-20T00:15:40;101428.94;;;9.80;100.00
60373;BME280;46216;52.220;5.134;2022-12-20T00:18:06;101429.00;;;9.78;100.00
60373;BME280;46216;52.220;5.134;2022-12-20T00:20:31;101428.56;;;9.86;100.00
60373;BME280;46216;52.220;5.134;2022-12-20T00:22:56;101421.06;;;9.92;100.00
60373;BME280;46216;52.220;5.134;2022-12-20T00:25:22;101418.22;;;9.95;100.00
60373;BME280;46216;52.220;5.134;2022-12-20T00:27:48;101411.75;;;10.00;100.00
60373;BME280;46216;52.220;5.134;2022-12-20T00:30:14;101403.56;;;10.03;100.00
60373;BME280;46216;52.220;5.134;2022-12-20T00:32:40;101398.06;;;10.06;100.00
60373;BME280;46216;52.220;5.134;2022-12-20T00:35:06;101404.06;;;10.09;100.00
60373;BME280;46216;52.220;5.134;2022-12-20T00:37:31;101403.88;;;10.12;100.00
60373;BME280;46216;52.220;5.134;2022-12-20T00:39:58;101407.28;;;10.14;100.00
60373;BME280;46216;52.220;5.134;2022-12-20T00:42:23;101396.53;;;10.16;100.00
60373;BME280;46216;52.220;5.134;2022-12-20T00:44:48;101396.13;;;10.22;100.00
60373;BME280;46216;52.220;5.134;2022-12-20T00:47:14;101397.88;;;10.23;100.00
60373;BME280;46216;52.220;5.134;2022-12-20T00:49:40;101403.28;;;10.22;100.00
60373;BME280;46216;52.220;5.134;2022-12-20T00:52:05;101409.25;;;10.25;100.00
60373;BME280;46216;52.220;5.134;2022-12-20T00:54:31;101410.44;;;10.35;100.00
60373;BME280;46216;52.220;5.134;2022-12-20T00:56:56;101396.91;;;10.38;100.00
60373;BME280;46216;52.220;5.134;2022-12-20T00:59:21;101408.53;;;10.37;100.00
60373;BME280;46216;52.220;5.134;2022-12-20T01:01:47;101389.97;;;10.36;100.00
60373;BME280;46216;52.220;5.134;2022-12-20T01:04:12;101394.44;;;10.35;100.00
60373;BME280;46216;52.220;5.134;2022-12-20T01:06:38;101388.28;;;10.35;100.00
60373;BME280;46216;52.220;5.134;2022-12-20T01:09:04;101385.72;;;10.33;100.00
60373;BME280;46216;52.220;5.134;2022-12-20T01:11:32;101385.53;;;10.36;100.00
60373;BME280;46216;52.220;5.134;2022-12-20T01:14:00;101377.63;;;10.35;100.00
60373;BME280;46216;52.220;5.134;2022-12-20T01:16:38;101382.28;;;10.31;100.00
60373;BME280;46216;52.220;5.134;2022-12-20T01:19:04;101369.06;;;10.30;100.00
60373;BME280;46216;52.220;5.134;2022-12-20T01:21:30;101364.59;;;10.30;100.00
60373;BME280;46216;52.220;5.134;2022-12-20T01:23:56;101380.06;;;10.24;100.00
60373;BME280;46216;52.220;5.134;2022-12-20T01:26:23;101386.44;;;10.21;100.00
60373;BME280;46216;52.220;5.134;2022-12-20T01:28:53;101383.03;;;10.19;100.00
60373;BME280;46216;52.220;5.134;2022-12-20T01:31:19;101385.78;;;10.17;100.00
60373;BME280;46216;52.220;5.134;2022-12-20T01:33:46;101369.72;;;10.19;100.00
60373;BME280;46216;52.220;5.134;2022-12-20T01:36:17;101372.47;;;10.17;100.00
60373;BME280;46216;52.220;5.134;2022-12-20T01:38:44;101374.47;;;10.14;100.00
60373;BME280;46216;52.220;5.134;2022-12-20T01:41:17;101365.69;;;10.12;100.00
60373;BME280;46216;52.220;5.134;2022-12-20T01:43:52;101371.97;;;10.11;100.00
60373;BME280;46216;52.220;5.134;2022-12-20T01:46:20;101368.94;;;10.17;100.00
60373;BME280;46216;52.220;5.134;2022-12-20T01:48:55;101373.59;;;10.13;100.00
60373;BME280;46216;52.220;5.134;2022-12-20T01:51:24;101357.53;;;10.15;100.00
60373;BME280;46216;52.220;5.134;2022-12-20T01:53:55;101363.81;;;10.14;100.00
60373;BME280;46216;52.220;5.134;2022-12-20T01:56:24;101367.97;;;10.18;100.00
60373;BME280;46216;52.220;5.134;2022-12-20T01:58:50;101358.19;;;10.18;100.00
60373;BME280;46216;52.220;5.134;2022-12-20T02:01:17;101355.63;;;10.17;100.00
60373;BME280;46216;52.220;5.134;2022-12-20T02:03:44;101356.59;;;10.16;100.00
60373;BME280;46216;52.220;5.134;2022-12-20T02:06:19;101355.81;;;10.14;100.00
60373;BME280;46216;52.220;5.134;2022-12-20T02:08:47;101364.00;;;10.11;100.00
60373;BME280;46216;52.220;5.134;2022-12-20T02:11:36;101356.00;;;10.11;100.00
60373;BME280;46216;52.220;5.134;2022-12-20T02:16:40;101329.47;;;10.09;100.00
60373;BME280;46216;52.220;5.134;2022-12-20T02:19:35;101334.88;;;10.08;100.00
60373;BME280;46216;52.220;5.134;2022-12-20T02:22:40;101336.81;;;10.06;100.00
60373;BME280;46216;52.220;5.134;2022-12-20T02:28:16;101338.59;;;10.05;100.00
60373;BME280;46216;52.220;5.134;2022-12-20T02:30:48;101339.56;;;10.04;100.00
60373;BME280;46216;52.220;5.134;2022-12-20T02:33:17;101343.06;;;10.05;100.00
60373;BME280;46216;52.220;5.134;2022-12-20T02:35:44;101353.53;;;10.08;100.00
60373;BME280;46216;52.220;5.134;2022-12-20T02:38:31;101345.91;;;10.02;100.00
60373;BME280;46216;52.220;5.134;2022-12-20T02:43:36;101324.34;;;10.06;100.00
60373;BME280;46216;52.220;5.134;2022-12-20T02:46:24;101318.84;;;10.09;100.00
60373;BME280;46216;52.220;5.134;2022-12-20T02:48:51;101345.47;;;10.09;100.00
60373;BME280;46216;52.220;5.134;2022-12-20T02:51:19;101352.59;;;10.09;100.00
60373;BME280;46216;52.220;5.134;2022-12-20T02:53:46;101341.94;;;10.09;100.00
60373;BME280;46216;52.220;5.134;2022-12-20T02:56:22;101341.72;;;10.12;100.00
60373;BME280;46216;52.220;5.134;2022-12-20T02:58:59;101322.53;;;10.07;100.00
60373;BME280;46216;52.220;5.134;2022-12-20T03:01:36;101325.00;;;10.10;100.00
60373;BME280;46216;52.220;5.134;2022-12-20T03:04:03;101321.97;;;10.16;100.00
60373;BME280;46216;52.220;5.134;2022-12-20T03:06:29;101317.56;;;10.15;100.00
60373;BME280;46216;52.220;5.134;2022-12-20T03:08:55;101331.47;;;10.20;100.00
60373;BME280;46216;52.220;5.134;2022-12-20T03:11:20;101332.50;;;10.17;100.00
60373;BME280;46216;52.220;5.134;2022-12-20T03:13:45;101326.22;;;10.18;100.00
60373;BME280;46216;52.220;5.134;2022-12-20T03:16:11;101327.28;;;10.16;100.00
60373;BME280;46216;52.220;5.134;2022-12-20T03:18:37;101311.84;;;10.21;100.00
60373;BME280;46216;52.220;5.134;2022-12-20T03:21:02;101313.19;;;10.14;100.00
60373;BME280;46216;52.220;5.134;2022-12-20T03:23:27;101327.84;;;10.21;100.00
60373;BME280;46216;52.220;5.134;2022-12-20T03:25:53;101315.69;;;10.17;100.00
60373;BME280;46216;52.220;5.134;2022-12-20T03:28:18;101333.28;;;10.19;100.00
60373;BME280;46216;52.220;5.134;2022-12-20T03:30:43;101324.44;;;10.19;100.00
60373;BME280;46216;52.220;5.134;2022-12-20T03:33:10;101324.97;;;10.24;100.00
60373;BME280;46216;52.220;5.134;2022-12-20T03:35:35;101314.53;;;10.21;100.00
60373;BME280;46216;52.220;5.134;2022-12-20T03:38:00;101317.78;;;10.26;100.00
60373;BME280;46216;52.220;5.134;2022-12-20T03:40:26;101313.97;;;10.30;100.00
60373;BME280;46216;52.220;5.134;2022-12-20T03:42:51;101316.84;;;10.27;100.00
60373;BME280;46216;52.220;5.134;2022-12-20T03:45:16;101311.50;;;10.27;100.00
60373;BME280;46216;52.220;5.134;2022-12-20T03:47:42;101294.72;;;10.25;100.00
60373;BME280;46216;52.220;5.134;2022-12-20T03:50:09;101297.56;;;10.22;100.00
60373;BME280;46216;52.220;5.134;2022-12-20T03:52:34;101295.88;;;10.21;100.00
60373;BME280;46216;52.220;5.134;2022-12-20T03:55:00;101299.50;;;10.20;100.00
60373;BME280;46216;52.220;5.134;2022-12-20T03:57:25;101295.69;;;10.24;100.00
60373;BME280;46216;52.220;5.134;2022-12-20T03:59:51;101299.03;;;10.28;100.00
60373;BME280;46216;52.220;5.134;2022-12-20T04:02:18;101298.00;;;10.30;100.00
60373;BME280;46216;52.220;5.134;2022-12-20T04:04:43;101303.31;;;10.30;100.00
60373;BME280;46216;52.220;5.134;2022-12-20T04:07:09;101294.06;;;10.36;100.00
60373;BME280;46216;52.220;5.134;2022-12-20T04:09:34;101292.94;;;10.40;100.00
60373;BME280;46216;52.220;5.134;2022-12-20T04:12:00;101291.13;;;10.40;100.00
60373;BME280;46216;52.220;5.134;2022-12-20T04:14:25;101278.00;;;10.37;100.00
60373;BME280;46216;52.220;5.134;2022-12-20T04:16:50;101290.66;;;10.34;100.00
60373;BME280;46216;52.220;5.134;2022-12-20T04:19:16;101270.97;;;10.36;100.00
60373;BME280;46216;52.220;5.134;2022-12-20T04:21:41;101287.50;;;10.41;100.00
60373;BME280;46216;52.220;5.134;2022-12-20T04:24:07;101280.06;;;10.47;100.00
60373;BME280;46216;52.220;5.134;2022-12-20T04:26:32;101279.88;;;10.50;100.00
60373;BME280;46216;52.220;5.134;2022-12-20T04:28:58;101273.56;;;10.51;100.00
60373;BME280;46216;52.220;5.134;2022-12-20T04:31:23;101256.63;;;10.52;100.00
60373;BME280;46216;52.220;5.134;2022-12-20T04:33:48;101267.19;;;10.53;100.00
60373;BME280;46216;52.220;5.134;2022-12-20T04:36:14;101251.94;;;10.55;100.00
60373;BME280;46216;52.220;5.134;2022-12-20T04:38:40;101261.44;;;10.59;100.00
60373;BME280;46216;52.220;5.134;2022-12-20T04:41:05;101268.19;;;10.65;100.00
60373;BME280;46216;52.220;5.134;2022-12-20T04:43:31;101260.75;;;10.70;100.00
60373;BME280;46216;52.220;5.134;2022-12-20T04:45:56;101267.03;;;10.69;100.00
60373;BME280;46216;52.220;5.134;2022-12-20T04:48:24;101259.88;;;10.70;100.00
60373;BME280;46216;52.220;5.134;2022-12-20T04:50:53;101270.25;;;10.74;100.00
60373;BME280;46216;52.220;5.134;2022-12-20T04:53:20;101259.19;;;10.80;100.00
60373;BME280;46216;52.220;5.134;2022-12-20T04:56:03;101272.50;;;10.80;100.00
60373;BME280;46216;52.220;5.134;2022-12-20T04:58:29;101273.16;;;10.84;100.00
60373;BME280;46216;52.220;5.134;2022-12-20T05:00:55;101268.03;;;10.81;100.00
60373;BME280;46216;52.220;5.134;2022-12-20T05:03:21;101261.41;;;10.86;100.00
60373;BME280;46216;52.220;5.134;2022-12-20T05:05:47;101261.53;;;10.85;100.00
60373;BME280;46216;52.220;5.134;2022-12-20T05:08:13;101274.75;;;10.86;100.00
60373;BME280;46216;52.220;5.134;2022-12-20T05:10:38;101263.53;;;10.81;100.00
60373;BME280;46216;52.220;5.134;2022-12-20T05:13:03;101256.97;;;10.87;100.00
60373;BME280;46216;52.220;5.134;2022-12-20T05:15:29;101249.25;;;10.82;100.00
60373;BME280;46216;52.220;5.134;2022-12-20T05:17:54;101246.78;;;10.79;100.00
60373;BME280;46216;52.220;5.134;2022-12-20T05:20:29;101243.59;;;10.74;100.00
60373;BME280;46216;52.220;5.134;2022-12-20T05:22:55;101240.94;;;10.74;100.00
60373;BME280;46216;52.220;5.134;2022-12-20T05:25:42;101233.84;;;10.73;100.00
60373;BME280;46216;52.220;5.134;2022-12-20T05:28:34;101227.59;;;10.74;100.00
60373;BME280;46216;52.220;5.134;2022-12-20T05:31:01;101232.16;;;10.72;100.00
60373;BME280;46216;52.220;5.134;2022-12-20T05:33:27;101223.88;;;10.77;100.00
60373;BME280;46216;52.220;5.134;2022-12-20T05:35:53;101223.63;;;10.80;100.00
60373;BME280;46216;52.220;5.134;2022-12-20T05:38:19;101221.09;;;10.78;100.00
60373;BME280;46216;52.220;5.134;2022-12-20T05:40:46;101208.72;;;10.77;100.00
60373;BME280;46216;52.220;5.134;2022-12-20T05:43:12;101208.53;;;10.80;100.00
60373;BME280;46216;52.220;5.134;2022-12-20T05:45:37;101207.88;;;10.77;100.00
60373;BME280;46216;52.220;5.134;2022-12-20T05:48:03;101193.38;;;10.81;100.00
60373;BME280;46216;52.220;5.134;2022-12-20T05:50:28;101190.81;;;10.79;100.00
60373;BME280;46216;52.220;5.134;2022-12-20T05:52:53;101196.69;;;10.84;100.00
60373;BME280;46216;52.220;5.134;2022-12-20T05:55:19;101201.91;;;10.86;100.00
60373;BME280;46216;52.220;5.134;2022-12-20T05:57:44;101198.38;;;10.85;100.00
60373;BME280;46216;52.220;5.134;2022-12-20T06:00:10;101198.31;;;10.87;100.00
60373;BME280;46216;52.220;5.134;2022-12-20T06:02:36;101198.38;;;10.85;100.00
60373;BME280;46216;52.220;5.134;2022-12-20T06:05:01;101195.31;;;10.92;100.00
60373;BME280;46216;52.220;5.134;2022-12-20T06:07:27;101195.09;;;10.95;100.00
60373;BME280;46216;52.220;5.134;2022-12-20T06:09:56;101189.78;;;10.95;100.00
60373;BME280;46216;52.220;5.134;2022-12-20T06:12:21;101206.41;;;10.98;100.00
60373;BME280;46216;52.220;5.134;2022-12-20T06:14:48;101202.91;;;10.98;100.00
60373;BME280;46216;52.220;5.134;2022-12-20T06:17:13;101200.03;;;11.01;100.00
60373;BME280;46216;52.220;5.134;2022-12-20T06:19:39;101196.38;;;11.02;100.00
60373;BME280;46216;52.220;5.134;2022-12-20T06:22:06;101191.56;;;11.07;100.00
60373;BME280;46216;52.220;5.134;2022-12-20T06:24:35;101194.03;;;11.10;100.00
60373;BME280;46216;52.220;5.134;2022-12-20T06:27:01;101193.81;;;11.13;100.00
60373;BME280;46216;52.220;5.134;2022-12-20T06:29:27;101187.75;;;11.11;100.00
60373;BME280;46216;52.220;5.134;2022-12-20T06:31:53;101188.47;;;11.13;100.00
60373;BME280;46216;52.220;5.134;2022-12-20T06:34:18;101190.94;;;11.16;100.00
60373;BME280;46216;52.220;5.134;2022-12-20T06:36:44;101185.50;;;11.18;100.00
60373;BME280;46216;52.220;5.134;2022-12-20T06:39:10;101196.91;;;11.20;100.00
60373;BME280;46216;52.220;5.134;2022-12-20T06:41:35;101178.88;;;11.23;100.00
60373;BME280;46216;52.220;5.134;2022-12-20T06:44:01;101180.59;;;11.24;100.00
60373;BME280;46216;52.220;5.134;2022-12-20T06:46:26;101179.31;;;11.17;100.00
60373;BME280;46216;52.220;5.134;2022-12-20T06:48:52;101190.53;;;11.22;100.00
60373;BME280;46216;52.220;5.134;2022-12-20T06:51:19;101187.84;;;11.22;100.00
60373;BME280;46216;52.220;5.134;2022-12-20T06:53:45;101186.16;;;11.21;100.00
60373;BME280;46216;52.220;5.134;2022-12-20T06:56:10;101191.69;;;11.18;100.00
60373;BME280;46216;52.220;5.134;2022-12-20T06:58:36;101186.38;;;11.18;100.00
60373;BME280;46216;52.220;5.134;2022-12-20T07:01:01;101181.03;;;11.18;100.00
60373;BME280;46216;52.220;5.134;2022-12-20T07:03:26;101188.06;;;11.19;100.00
60373;BME280;46216;52.220;5.134;2022-12-20T07:05:53;101172.47;;;11.26;100.00
60373;BME280;46216;52.220;5.134;2022-12-20T07:08:19;101182.50;;;11.22;100.00
60373;BME280;46216;52.220;5.134;2022-12-20T07:10:44;101181.47;;;11.25;100.00
60373;BME280;46216;52.220;5.134;2022-12-20T07:13:10;101186.78;;;11.25;100.00
60373;BME280;46216;52.220;5.134;2022-12-20T07:15:35;101180.38;;;11.27;100.00
60373;BME280;46216;52.220;5.134;2022-12-20T07:18:01;101187.22;;;11.31;100.00
60373;BME280;46216;52.220;5.134;2022-12-20T07:20:27;101182.94;;;11.29;100.00
60373;BME280;46216;52.220;5.134;2022-12-20T07:22:52;101179.09;;;11.33;100.00
60373;BME280;46216;52.220;5.134;2022-12-20T07:25:18;101172.91;;;11.32;100.00
60373;BME280;46216;52.220;5.134;2022-12-20T07:27:46;101175.44;;;11.34;100.00
60373;BME280;46216;52.220;5.134;2022-12-20T07:30:12;101183.56;;;11.32;100.00
60373;BME280;46216;52.220;5.134;2022-12-20T07:32:38;101188.91;;;11.32;100.00
60373;BME280;46216;52.220;5.134;2022-12-20T07:35:09;101181.66;;;11.34;100.00
60373;BME280;46216;52.220;5.134;2022-12-20T07:37:34;101178.66;;;11.39;100.00
60373;BME280;46216;52.220;5.134;2022-12-20T07:40:00;101178.53;;;11.41;100.00
60373;BME280;46216;52.220;5.134;2022-12-20T07:42:25;101181.84;;;11.44;100.00
60373;BME280;46216;52.220;5.134;2022-12-20T07:44:50;101191.66;;;11.44;100.00
60373;BME280;46216;52.220;5.134;2022-12-20T07:47:16;101189.97;;;11.43;100.00
60373;BME280;46216;52.220;5.134;2022-12-20T07:49:41;101180.06;;;11.45;100.00
60373;BME280;46216;52.220;5.134;2022-12-20T07:52:07;101181.75;;;11.46;100.00
60373;BME280;46216;52.220;5.134;2022-12-20T07:54:36;101181.00;;;11.44;100.00
60373;BME280;46216;52.220;5.134;2022-12-20T07:57:06;101191.88;;;11.41;100.00
60373;BME280;46216;52.220;5.134;2022-12-20T07:59:44;101189.97;;;11.43;100.00
60373;BME280;46216;52.220;5.134;2022-12-20T08:02:14;101194.34;;;11.44;100.00
60373;BME280;46216;52.220;5.134;2022-12-20T08:04:41;101186.34;;;11.31;100.00
60373;BME280;46216;52.220;5.134;2022-12-20T08:07:08;101182.50;;;11.35;100.00
60373;BME280;46216;52.220;5.134;2022-12-20T08:09:38;101194.47;;;11.29;100.00
60373;BME280;46216;52.220;5.134;2022-12-20T08:12:06;101185.94;;;11.24;100.00
60373;BME280;46216;52.220;5.134;2022-12-20T08:14:32;101178.38;;;11.18;100.00
60373;BME280;46216;52.220;5.134;2022-12-20T08:16:58;101188.69;;;11.10;100.00
60373;BME280;46216;52.220;5.134;2022-12-20T08:19:23;101188.47;;;11.00;100.00
60373;BME280;46216;52.220;5.134;2022-12-20T08:21:48;101195.81;;;10.97;100.00
60373;BME280;46216;52.220;5.134;2022-12-20T08:24:14;101203.31;;;10.92;100.00
60373;BME280;46216;52.220;5.134;2022-12-20T08:26:40;101210.03;;;10.84;100.00
60373;BME280;46216;52.220;5.134;2022-12-20T08:29:06;101198.38;;;10.85;100.00
60373;BME280;46216;52.220;5.134;2022-12-20T08:31:36;101203.19;;;10.80;100.00
60373;BME280;46216;52.220;5.134;2022-12-20T08:34:01;101197.94;;;10.79;100.00
60373;BME280;46216;52.220;5.134;2022-12-20T08:36:27;101202.44;;;10.78;100.00
60373;BME280;46216;52.220;5.134;2022-12-20T08:38:52;101200.81;;;10.76;100.00
60373;BME280;46216;52.220;5.134;2022-12-20T08:41:17;101198.47;;;10.71;100.00
60373;BME280;46216;52.220;5.134;2022-12-20T08:43:43;101201.38;;;10.81;100.00
60373;BME280;46216;52.220;5.134;2022-12-20T08:46:09;101189.53;;;10.85;100.00
60373;BME280;46216;52.220;5.134;2022-12-20T08:48:35;101184.41;;;10.82;100.00
60373;BME280;46216;52.220;5.134;2022-12-20T08:51:03;101192.41;;;10.82;100.00
60373;BME280;46216;52.220;5.134;2022-12-20T08:53:29;101187.63;;;10.87;100.00
60373;BME280;46216;52.220;5.134;2022-12-20T08:56:09;101190.06;;;10.77;100.00
60373;BME280;46216;52.220;5.134;2022-12-20T08:58:36;101189.94;;;10.79;100.00
60373;BME280;46216;52.220;5.134;2022-12-20T09:01:04;101190.81;;;10.79;100.00
60373;BME280;46216;52.220;5.134;2022-12-20T09:03:30;101193.25;;;10.82;100.00
60373;BME280;46216;52.220;5.134;2022-12-20T09:05:57;101200.53;;;10.80;100.00
60373;BME280;46216;52.220;5.134;2022-12-20T09:08:22;101190.59;;;10.82;100.00
60373;BME280;46216;52.220;5.134;2022-12-20T09:10:48;101197.84;;;10.80;100.00
60373;BME280;46216;52.220;5.134;2022-12-20T09:13:14;101209.56;;;10.78;100.00
60373;BME280;46216;52.220;5.134;2022-12-20T09:15:39;101200.19;;;10.72;100.00
60373;BME280;46216;52.220;5.134;2022-12-20T09:18:06;101197.63;;;10.71;100.00
60373;BME280;46216;52.220;5.134;2022-12-20T09:20:31;101197.72;;;10.69;100.00
60373;BME280;46216;52.220;5.134;2022-12-20T09:22:58;101199.66;;;10.67;100.00
60373;BME280;46216;52.220;5.134;2022-12-20T09:25:24;101200.59;;;10.66;100.00
60373;BME280;46216;52.220;5.134;2022-12-20T09:27:50;101200.13;;;10.59;100.00
60373;BME280;46216;52.220;5.134;2022-12-20T09:30:15;101202.91;;;10.58;100.00
60373;BME280;46216;52.220;5.134;2022-12-20T09:32:41;101195.91;;;10.57;100.00
60373;BME280;46216;52.220;5.134;2022-12-20T09:35:06;101203.13;;;10.55;100.00
60373;BME280;46216;52.220;5.134;2022-12-20T09:37:32;101212.94;;;10.54;100.00
60373;BME280;46216;52.220;5.134;2022-12-20T09:39:58;101205.25;;;10.50;100.00
60373;BME280;46216;52.220;5.134;2022-12-20T09:42:27;101203.31;;;10.52;100.00
60373;BME280;46216;52.220;5.134;2022-12-20T09:45:03;101213.69;;;10.56;100.00
60373;BME280;46216;52.220;5.134;2022-12-20T09:47:32;101217.63;;;10.51;100.00
60373;BME280;46216;52.220;5.134;2022-12-20T09:49:58;101201.06;;;10.46;100.00
60373;BME280;46216;52.220;5.134;2022-12-20T10:00:01;101200.78;;;10.50;100.00
60373;BME280;46216;52.220;5.134;2022-12-20T10:02:28;101208.84;;;10.49;100.00
60373;BME280;46216;52.220;5.134;2022-12-20T10:04:54;101211.31;;;10.52;100.00
60373;BME280;46216;52.220;5.134;2022-12-20T10:07:38;101202.47;;;10.51;100.00
60373;BME280;46216;52.220;5.134;2022-12-20T10:15:35;101198.13;;;10.63;100.00
60373;BME280;46216;52.220;5.134;2022-12-20T10:18:13;101202.50;;;10.64;100.00
60373;BME280;46216;52.220;5.134;2022-12-20T10:23:25;101194.31;;;10.67;100.00
60373;BME280;46216;52.220;5.134;2022-12-20T10:25:54;101205.06;;;10.65;100.00
60373;BME280;46216;52.220;5.134;2022-12-20T10:28:33;101194.13;;;10.70;100.00
60373;BME280;46216;52.220;5.134;2022-12-20T10:31:06;101197.06;;;10.65;100.00
60373;BME280;46216;52.220;5.134;2022-12-20T10:33:32;101193.34;;;10.68;100.00
60373;BME280;46216;52.220;5.134;2022-12-20T10:38:50;101171.81;;;10.71;100.00
60373;BME280;46216;52.220;5.134;2022-12-20T10:41:19;101174.28;;;10.74;100.00
60373;BME280;46216;52.220;5.134;2022-12-20T10:43:48;101172.25;;;10.78;100.00
60373;BME280;46216;52.220;5.134;2022-12-20T10:46:15;101173.94;;;10.79;100.00
60373;BME280;46216;52.220;5.134;2022-12-20T10:48:42;101173.31;;;10.75;100.00
60373;BME280;46216;52.220;5.134;2022-12-20T10:53:53;101182.81;;;10.79;100.00
60373;BME280;46216;52.220;5.134;2022-12-20T10:56:33;101173.09;;;10.78;100.00
60373;BME280;46216;52.220;5.134;2022-12-20T10:59:04;101176.94;;;10.74;100.00
60373;BME280;46216;52.220;5.134;2022-12-20T11:01:48;101170.44;;;10.78;100.00
60373;BME280;46216;52.220;5.134;2022-12-20T11:04:33;101171.63;;;10.74;100.00
60373;BME280;46216;52.220;5.134;2022-12-20T11:07:01;101165.97;;;10.79;100.00
60373;BME280;46216;52.220;5.134;2022-12-20T11:09:30;101170.13;;;10.70;100.00
60373;BME280;46216;52.220;5.134;2022-12-20T11:12:16;101174.50;;;10.71;100.00
60373;BME280;46216;52.220;5.134;2022-12-20T11:14:43;101166.91;;;10.78;100.00
60373;BME280;46216;52.220;5.134;2022-12-20T11:17:24;101169.38;;;10.81;100.00
60373;BME280;46216;52.220;5.134;2022-12-20T11:28:02;101170.56;;;10.77;100.00
60373;BME280;46216;52.220;5.134;2022-12-20T11:37:17;101150.28;;;10.74;100.00
60373;BME280;46216;52.220;5.134;2022-12-20T11:40:10;101156.25;;;10.78;100.00
60373;BME280;46216;52.220;5.134;2022-12-20T11:45:17;101160.28;;;10.83;100.00
60373;BME280;46216;52.220;5.134;2022-12-20T11:47:57;101158.81;;;10.79;100.00
60373;BME280;46216;52.220;5.134;2022-12-20T11:55:53;101159.66;;;10.80;100.00
60373;BME280;46216;52.220;5.134;2022-12-20T11:58:43;101164.91;;;10.81;100.00
60373;BME280;46216;52.220;5.134;2022-12-20T12:01:16;101165.63;;;10.83;100.00
60373;BME280;46216;52.220;5.134;2022-12-20T12:03:48;101162.88;;;10.85;100.00
60373;BME280;46216;52.220;5.134;2022-12-20T12:06:22;101168.97;;;10.87;100.00
60373;BME280;46216;52.220;5.134;2022-12-20T12:09:12;101158.31;;;10.87;100.00
60373;BME280;46216;52.220;5.134;2022-12-20T12:11:45;101155.31;;;10.92;100.00
60373;BME280;46216;52.220;5.134;2022-12-20T12:14:26;101162.56;;;10.89;100.00
60373;BME280;46216;52.220;5.134;2022-12-20T12:16:53;101150.94;;;10.91;100.00
60373;BME280;46216;52.220;5.134;2022-12-20T12:19:25;101144.97;;;10.87;100.00
60373;BME280;46216;52.220;5.134;2022-12-20T12:22:00;101152.53;;;10.93;100.00
60373;BME280;46216;52.220;5.134;2022-12-20T12:24:32;101157.97;;;10.92;100.00
60373;BME280;46216;52.220;5.134;2022-12-20T12:26:59;101147.31;;;10.92;100.00
60373;BME280;46216;52.220;5.134;2022-12-20T12:29:27;101151.16;;;10.87;100.00
60373;BME280;46216;52.220;5.134;2022-12-20T12:33:08;101153.50;;;10.92;100.00
60373;BME280;46216;52.220;5.134;2022-12-20T12:45:47;101143.69;;;10.93;100.00
60373;BME280;46216;52.220;5.134;2022-12-20T12:48:18;101145.63;;;10.91;100.00
60373;BME280;46216;52.220;5.134;2022-12-20T12:50:56;101152.84;;;10.88;100.00
60373;BME280;46216;52.220;5.134;2022-12-20T12:53:33;101152.66;;;10.92;100.00
60373;BME280;46216;52.220;5.134;2022-12-20T13:11:47;101158.63;;;10.95;100.00
60373;BME280;46216;52.220;5.134;2022-12-20T13:16:38;101160.22;;;10.98;100.00
60373;BME280;46216;52.220;5.134;2022-12-20T13:19:17;101152.22;;;10.98;100.00
60373;BME280;46216;52.220;5.134;2022-12-20T13:21:46;101154.97;;;10.96;100.00
60373;BME280;46216;52.220;5.134;2022-12-20T13:38:04;101155.63;;;11.00;100.00
60373;BME280;46216;52.220;5.134;2022-12-20T13:40:34;101162.03;;;10.97;100.00
60373;BME280;46216;52.220;5.134;2022-12-20T13:46:11;101148.78;;;10.96;100.00
60373;BME280;46216;52.220;5.134;2022-12-20T13:48:55;101153.16;;;10.97;100.00
60373;BME280;46216;52.220;5.134;2022-12-20T13:51:26;101148.78;;;10.96;100.00
60373;BME280;46216;52.220;5.134;2022-12-20T13:56:33;101143.25;;;10.99;100.00
60373;BME280;46216;52.220;5.134;2022-12-20T13:59:30;101144.22;;;10.98;100.00
60373;BME280;46216;52.220;5.134;2022-12-20T14:01:58;101153.91;;;10.99;100.00
60373;BME280;46216;52.220;5.134;2022-12-20T14:04:26;101149.78;;;10.95;100.00
60373;BME280;46216;52.220;5.134;2022-12-20T14:06:57;101147.09;;;10.95;100.00
60373;BME280;46216;52.220;5.134;2022-12-20T14:09:31;101137.91;;;10.99;100.00
60373;BME280;46216;52.220;5.134;2022-12-20T14:12:16;101143.59;;;10.94;100.00
60373;BME280;46216;52.220;5.134;2022-12-20T14:14:44;101140.81;;;10.96;100.00
60373;BME280;46216;52.220;5.134;2022-12-20T14:17:27;101139.81;;;10.97;100.00
60373;BME280;46216;52.220;5.134;2022-12-20T14:22:28;101159.38;;;10.97;100.00
60373;BME280;46216;52.220;5.134;2022-12-20T14:24:53;101161.16;;;10.97;100.00
60373;BME280;46216;52.220;5.134;2022-12-20T14:27:19;101149.44;;;10.99;100.00
60373;BME280;46216;52.220;5.134;2022-12-20T14:29:44;101150.28;;;11.00;100.00
60373;BME280;46216;52.220;5.134;2022-12-20T14:32:19;101153.06;;;10.98;100.00